createdAt,value
2023-12-12T00:00:20.879Z,100764.22
2023-12-12T00:02:51.601Z,100785.19
2023-12-12T00:05:23.436Z,100782.41
2023-12-12T00:10:35.535Z,100797.50
2023-12-12T00:13:04.075Z,100755.44
2023-12-12T00:15:32.617Z,100790.59
2023-12-12T00:18:03.153Z,100796.09
2023-12-12T00:20:32.102Z,100728.31
2023-12-12T00:25:50.456Z,100793.16
2023-12-12T00:28:20.564Z,100806.06
2023-12-12T00:30:51.994Z,100808.81
2023-12-12T00:33:22.574Z,100798.88
2023-12-12T00:36:05.340Z,100716.47
2023-12-12T00:38:35.108Z,100809.53
2023-12-12T00:41:04.394Z,100813.91
2023-12-12T00:43:33.175Z,100797.56
2023-12-12T00:46:02.029Z,100802.50
2023-12-12T00:48:33.464Z,100786.53
2023-12-12T00:51:02.288Z,100792.25
2023-12-12T00:53:31.105Z,100735.94
2023-12-12T00:56:00.530Z,100826.75
2023-12-12T00:58:29.398Z,100833.75
2023-12-12T01:00:58.021Z,100804.78
2023-12-12T01:03:26.836Z,100773.69
2023-12-12T01:05:56.925Z,100824.84
2023-12-12T01:08:25.873Z,100815.09
2023-12-12T01:10:55.883Z,100827.25
2023-12-12T01:13:25.183Z,100836.03
2023-12-12T01:16:11.065Z,100847.56
2023-12-12T01:18:40.712Z,100845.97
2023-12-12T01:21:11.609Z,100849.09
2023-12-12T01:23:50.588Z,100847.13
2023-12-12T01:26:20.807Z,100787.97
2023-12-12T01:28:53.007Z,100832.91
2023-12-12T01:31:22.257Z,100853.78
2023-12-12T01:33:52.149Z,100825.53
2023-12-12T01:36:24.708Z,100818.75
2023-12-12T01:38:53.368Z,100854.72
2023-12-12T01:41:22.525Z,100787.84
2023-12-12T01:43:52.977Z,100783.53
2023-12-12T01:46:29.819Z,100854.06
2023-12-12T01:48:59.480Z,100873.13
2023-12-12T01:51:32.001Z,100870.88
2023-12-12T01:54:04.365Z,100874.53
2023-12-12T01:56:35.799Z,100875.38
2023-12-12T01:59:06.953Z,100874.34
2023-12-12T02:01:39.239Z,100851.53
2023-12-12T02:04:10.559Z,100856.81
2023-12-12T02:06:49.017Z,100782.72
2023-12-12T02:09:19.058Z,100851.25
2023-12-12T02:11:49.397Z,100872.38
2023-12-12T02:14:20.901Z,100871.78
2023-12-12T02:16:50.318Z,100872.66
2023-12-12T02:19:20.972Z,100880.19
2023-12-12T02:21:55.601Z,100862.94
2023-12-12T02:24:25.146Z,100852.34
2023-12-12T02:26:55.059Z,100816.09
2023-12-12T02:32:12.788Z,100856.75
2023-12-12T02:34:44.976Z,100881.44
2023-12-12T02:37:18.911Z,100837.97
2023-12-12T02:39:51.753Z,100884.97
2023-12-12T02:42:21.588Z,100887.28
2023-12-12T02:44:54.396Z,100884.50
2023-12-12T02:47:25.038Z,100858.34
2023-12-12T02:52:41.630Z,100898.50
2023-12-12T02:55:14.339Z,100903.66
2023-12-12T02:57:43.676Z,100901.53
2023-12-12T03:00:14.339Z,100878.63
2023-12-12T03:02:43.376Z,100834.16
2023-12-12T03:05:13.392Z,100860.69
2023-12-12T03:18:04.085Z,100890.28
2023-12-12T03:20:36.126Z,100827.94
2023-12-12T03:23:05.238Z,100891.19
2023-12-12T03:25:36.091Z,100812.22
2023-12-12T03:28:08.846Z,100859.38
2023-12-12T03:30:38.775Z,100907.50
2023-12-12T03:33:13.963Z,100904.44
2023-12-12T03:35:44.517Z,100881.66
2023-12-12T03:38:16.065Z,100820.41
2023-12-12T03:50:20.822Z,100812.81
2023-12-12T03:52:54.189Z,100921.56
2023-12-12T03:55:39.372Z,100863.53
2023-12-12T03:58:13.177Z,100921.56
2023-12-12T04:00:57.987Z,100901.00
2023-12-12T04:03:29.689Z,100924.84
2023-12-12T04:05:58.754Z,100924.84
2023-12-12T04:08:31.628Z,100918.69
2023-12-12T04:11:14.010Z,100926.84
2023-12-12T04:13:43.429Z,100902.09
2023-12-12T04:16:13.669Z,100894.94
2023-12-12T04:18:48.669Z,100878.84
2023-12-12T04:21:18.922Z,100919.44
2023-12-12T04:23:52.516Z,100874.63
2023-12-12T04:26:21.559Z,100885.88
2023-12-12T04:28:51.896Z,100938.81
2023-12-12T04:31:21.313Z,100919.38
2023-12-12T04:33:52.311Z,100902.91
2023-12-12T04:36:23.462Z,100903.34
2023-12-12T04:38:58.884Z,100934.94
2023-12-12T04:41:30.112Z,100929.72
2023-12-12T04:43:58.674Z,100934.78
2023-12-12T04:46:42.261Z,100928.78
2023-12-12T04:49:14.251Z,100927.84
2023-12-12T04:54:48.317Z,100914.78
2023-12-12T04:57:20.081Z,100929.91
2023-12-12T04:59:49.524Z,100880.50
2023-12-12T05:02:20.962Z,100941.03
2023-12-12T05:04:50.909Z,100876.03
2023-12-12T05:07:21.981Z,100921.72
2023-12-12T05:09:54.970Z,100915.44
2023-12-12T05:12:26.347Z,100949.63
2023-12-12T05:14:55.646Z,100934.13
2023-12-12T05:17:24.766Z,100890.94
2023-12-12T05:19:54.442Z,100933.84
2023-12-12T05:22:23.997Z,100873.00
2023-12-12T05:24:57.383Z,100886.16
2023-12-12T05:27:26.550Z,100947.69
2023-12-12T05:29:56.362Z,100947.94
2023-12-12T05:32:25.878Z,100947.78
2023-12-12T05:40:26.686Z,100914.25
2023-12-12T05:42:55.668Z,100955.47
2023-12-12T05:45:32.393Z,100955.41
2023-12-12T05:48:04.834Z,100959.81
2023-12-12T05:50:34.353Z,100884.25
2023-12-12T05:53:03.087Z,100957.19
2023-12-12T05:55:33.697Z,100909.66
2023-12-12T05:58:02.883Z,100959.44
2023-12-12T06:00:33.740Z,100892.75
2023-12-12T06:03:05.521Z,100900.25
2023-12-12T06:05:34.319Z,100938.50
2023-12-12T06:08:02.969Z,100939.06
2023-12-12T06:10:32.814Z,100898.19
2023-12-12T06:13:01.622Z,100976.00
2023-12-12T06:15:31.101Z,100986.50
2023-12-12T06:18:05.657Z,100988.47
2023-12-12T06:20:54.957Z,100985.06
2023-12-12T06:23:39.585Z,100895.13
2023-12-12T06:26:16.476Z,100933.00
2023-12-12T06:28:48.142Z,100963.47
2023-12-12T06:31:20.815Z,100966.91
2023-12-12T06:33:54.841Z,100995.75
2023-12-12T06:36:28.841Z,100909.47
2023-12-12T06:38:57.662Z,100995.03
2023-12-12T06:41:28.578Z,100954.50
2023-12-12T06:43:58.180Z,100971.91
2023-12-12T06:46:27.303Z,100991.44
2023-12-12T06:48:56.365Z,101005.06
2023-12-12T06:51:24.768Z,100980.34
2023-12-12T06:53:55.494Z,100954.00
2023-12-12T06:56:25.225Z,101006.84
2023-12-12T06:59:01.988Z,101007.06
2023-12-12T07:01:32.505Z,100985.63
2023-12-12T07:04:23.278Z,101005.78
2023-12-12T07:06:55.187Z,101004.84
2023-12-12T07:09:26.102Z,101018.78
2023-12-12T07:11:56.424Z,100962.34
2023-12-12T07:14:28.189Z,101027.50
2023-12-12T07:16:58.605Z,101023.91
2023-12-12T07:19:29.553Z,101013.28
2023-12-12T07:22:00.823Z,100997.56
2023-12-12T07:24:31.267Z,100996.13
2023-12-12T07:27:00.823Z,101001.25
2023-12-12T07:29:36.210Z,101013.78
2023-12-12T07:32:05.891Z,100924.16
2023-12-12T07:34:37.200Z,101016.78
2023-12-12T07:37:08.318Z,100952.41
2023-12-12T07:39:38.893Z,100962.94
2023-12-12T07:42:08.890Z,101021.66
2023-12-12T07:44:40.505Z,100998.75
2023-12-12T07:47:11.245Z,101029.69
2023-12-12T07:49:41.722Z,101004.00
2023-12-12T07:52:11.060Z,101029.50
2023-12-12T07:54:39.657Z,101032.22
2023-12-12T07:57:08.339Z,101039.59
2023-12-12T07:59:49.523Z,100942.13
2023-12-12T08:02:18.952Z,101028.06
2023-12-12T08:04:48.746Z,101028.13
2023-12-12T08:07:18.917Z,101032.41
2023-12-12T08:09:49.338Z,100994.75
2023-12-12T08:12:19.036Z,100998.94
2023-12-12T08:14:54.238Z,101005.25
2023-12-12T08:17:23.370Z,100916.53
2023-12-12T08:19:52.215Z,100935.00
2023-12-12T08:22:21.986Z,101000.03
2023-12-12T08:24:54.770Z,101014.25
2023-12-12T08:27:23.548Z,100962.13
2023-12-12T08:29:54.704Z,101019.47
2023-12-12T08:32:24.055Z,101044.06
2023-12-12T08:34:54.203Z,101047.34
2023-12-12T08:37:22.970Z,101044.13
2023-12-12T08:39:52.268Z,101023.34
2023-12-12T08:42:21.460Z,101049.56
2023-12-12T08:44:50.821Z,100986.00
2023-12-12T08:47:21.956Z,101042.50
2023-12-12T08:49:51.171Z,101021.25
2023-12-12T08:52:23.144Z,100971.84
2023-12-12T08:54:52.180Z,101001.06
2023-12-12T08:57:22.070Z,100992.97
2023-12-12T08:59:55.426Z,101021.59
2023-12-12T09:02:26.644Z,101000.59
2023-12-12T09:04:56.398Z,101055.72
2023-12-12T09:07:25.253Z,101043.84
2023-12-12T09:10:01.867Z,101039.56
2023-12-12T09:12:31.468Z,101042.88
2023-12-12T09:15:02.405Z,101049.22
2023-12-12T09:17:33.753Z,100984.09
2023-12-12T09:20:05.313Z,101038.69
2023-12-12T09:22:36.650Z,101046.41
2023-12-12T09:25:07.420Z,101055.88
2023-12-12T09:27:38.316Z,101049.75
2023-12-12T09:30:08.893Z,100996.13
2023-12-12T09:32:40.461Z,101062.34
2023-12-12T13:37:17.724Z,101054.78
2023-12-12T13:39:46.477Z,100994.44
2023-12-12T13:42:15.174Z,101052.25
2023-12-12T13:44:44.096Z,101045.22
2023-12-12T13:47:12.701Z,100995.97
2023-12-12T13:49:41.590Z,101038.78
2023-12-12T13:52:10.449Z,100991.38
2023-12-12T13:54:40.358Z,100876.53
2023-12-12T13:57:14.429Z,101052.63
2023-12-12T13:59:43.786Z,101043.91
2023-12-12T14:02:26.457Z,101057.47
2023-12-12T14:05:03.830Z,101025.81
2023-12-12T14:07:33.062Z,100987.03
2023-12-12T14:10:03.703Z,100966.72
2023-12-12T14:12:35.323Z,101044.56
2023-12-12T14:15:05.425Z,101018.22
2023-12-12T14:17:34.182Z,101044.34
2023-12-12T14:20:03.140Z,101002.00
2023-12-12T14:22:32.858Z,101018.06
2023-12-12T14:25:03.667Z,101046.03
2023-12-12T14:27:32.344Z,101047.50
2023-12-12T14:30:01.542Z,101020.25
2023-12-12T14:32:31.186Z,101049.03
2023-12-12T14:35:00.659Z,101051.50
2023-12-12T14:37:31.038Z,101018.50
2023-12-12T14:39:59.640Z,100977.84
2023-12-12T14:42:30.745Z,101048.41
2023-12-12T14:44:59.411Z,101046.50
2023-12-12T14:47:30.573Z,101039.53
2023-12-12T14:49:59.667Z,101060.63
2023-12-12T14:52:28.159Z,101026.19
2023-12-12T14:54:57.160Z,101046.44
2023-12-12T14:57:26.968Z,100980.66
2023-12-12T14:59:56.966Z,100984.75
2023-12-12T15:02:28.565Z,101023.28
2023-12-12T15:04:57.330Z,101054.34
2023-12-12T15:07:25.781Z,100981.47
2023-12-12T15:09:54.829Z,101023.81
2023-12-12T15:12:25.965Z,101020.41
2023-12-12T15:14:56.635Z,101039.31
2023-12-12T15:17:28.516Z,101000.22
2023-12-12T15:19:57.538Z,101037.53
2023-12-12T15:22:26.659Z,101028.22
2023-12-12T15:24:55.497Z,100983.56
2023-12-12T15:27:25.078Z,101033.59
2023-12-12T15:29:55.679Z,101009.38
2023-12-12T15:32:25.261Z,101027.28
2023-12-12T15:34:57.703Z,101040.03
2023-12-12T15:37:27.640Z,101004.66
2023-12-12T15:39:56.540Z,101026.97
2023-12-12T15:42:25.438Z,101026.81
2023-12-12T15:44:55.405Z,100976.91
2023-12-12T15:47:25.141Z,100994.94
2023-12-12T15:50:13.722Z,100990.94
2023-12-12T15:52:42.366Z,100931.00
2023-12-12T15:55:10.779Z,100975.94
2023-12-12T15:57:39.906Z,101002.34
2023-12-12T16:00:15.326Z,101000.78
2023-12-12T16:02:44.756Z,100938.50
2023-12-12T16:05:15.245Z,101002.94
2023-12-12T16:07:44.259Z,100974.84
2023-12-12T16:10:13.933Z,100987.06
2023-12-12T16:12:43.089Z,100974.03
2023-12-12T16:15:12.961Z,100925.66
2023-12-12T16:17:46.621Z,100996.22
2023-12-12T16:20:18.849Z,100965.72
2023-12-12T16:22:47.774Z,100956.59
2023-12-12T16:25:18.060Z,100977.94
2023-12-12T16:27:53.321Z,100974.44
2023-12-12T16:30:23.644Z,100972.06
2023-12-12T16:32:55.432Z,100968.91
2023-12-12T16:35:27.858Z,100988.28
2023-12-12T16:37:57.957Z,100990.81
2023-12-12T16:40:27.995Z,100990.28
2023-12-12T16:43:09.321Z,100909.44
2023-12-12T16:45:50.018Z,100970.84
2023-12-12T16:48:26.860Z,100958.50
2023-12-12T16:51:09.780Z,101002.56
2023-12-12T16:59:48.978Z,100993.97
2023-12-12T17:02:18.413Z,100947.88
2023-12-12T17:04:53.894Z,101006.06
2023-12-12T17:10:24.902Z,100938.47
2023-12-12T17:12:57.130Z,100998.44
2023-12-12T17:15:31.039Z,100947.38
2023-12-12T17:18:02.419Z,101012.69
2023-12-12T17:20:42.519Z,100988.75
2023-12-12T17:23:16.698Z,100993.13
2023-12-12T17:25:46.153Z,101024.97
2023-12-12T17:28:15.301Z,101002.06
2023-12-12T17:30:45.576Z,100990.75
2023-12-12T17:33:14.526Z,100939.59
2023-12-12T17:35:43.117Z,100990.28
2023-12-12T17:38:13.086Z,101017.50
2023-12-12T17:40:42.001Z,101012.06
2023-12-12T17:43:10.988Z,101002.97
2023-12-12T17:45:39.436Z,101001.16
2023-12-12T17:48:08.582Z,101004.84
2023-12-12T17:50:37.043Z,101002.63
2023-12-12T17:53:11.247Z,101014.78
2023-12-12T17:55:41.179Z,100910.69
2023-12-12T17:58:10.040Z,100970.91
2023-12-12T18:00:38.779Z,100995.97
2023-12-12T18:03:07.438Z,100915.50
2023-12-12T18:05:46.564Z,100940.69
2023-12-12T18:08:15.168Z,100974.22
2023-12-12T18:10:45.209Z,100969.00
2023-12-12T18:13:13.617Z,100919.16
2023-12-12T18:15:42.592Z,100952.56
2023-12-12T18:18:11.529Z,100946.59
2023-12-12T18:20:41.542Z,100918.38
2023-12-12T18:23:10.790Z,100978.13
2023-12-12T18:25:43.613Z,100988.69
2023-12-12T18:28:30.436Z,100955.00
2023-12-12T18:30:59.898Z,100935.28
2023-12-12T18:33:29.660Z,100899.72
2023-12-12T18:35:59.251Z,100968.00
2023-12-12T18:38:29.162Z,100982.19
2023-12-12T18:41:09.393Z,100943.66
2023-12-12T18:43:43.132Z,100919.59
2023-12-12T18:46:15.426Z,100952.25
2023-12-12T18:48:48.908Z,100969.75
2023-12-12T18:51:17.656Z,100949.19
2023-12-12T18:53:47.659Z,100957.50
2023-12-12T18:56:16.894Z,100979.78
2023-12-12T18:58:52.880Z,100979.63
2023-12-12T19:01:27.522Z,100914.66
2023-12-12T19:03:58.292Z,100958.69
2023-12-12T19:06:29.814Z,100961.19
2023-12-12T19:08:58.784Z,100955.84
2023-12-12T19:11:29.096Z,100982.88
2023-12-12T19:14:02.338Z,100980.25
2023-12-12T19:16:35.992Z,100950.38
2023-12-12T19:19:07.077Z,100983.88
2023-12-12T19:21:37.855Z,100900.63
2023-12-12T19:24:10.115Z,100959.91
2023-12-12T19:26:38.988Z,100950.13
2023-12-12T19:29:11.082Z,100977.00
2023-12-12T19:31:46.476Z,100976.91
2023-12-12T19:34:17.230Z,100978.34
2023-12-12T19:36:51.505Z,100929.16
2023-12-12T19:39:21.288Z,100984.53
2023-12-12T19:41:50.388Z,100943.09
2023-12-12T19:44:23.097Z,100978.66
2023-12-12T19:46:52.444Z,100959.59
2023-12-12T19:49:22.375Z,100981.31
2023-12-12T19:51:51.810Z,100980.97
2023-12-12T19:54:20.678Z,100988.22
2023-12-12T19:56:49.074Z,100965.19
2023-12-12T19:59:19.239Z,100987.75
2023-12-12T20:01:55.787Z,100986.06
2023-12-12T20:04:26.961Z,100944.91
2023-12-12T20:07:09.350Z,100902.31
2023-12-12T20:09:47.800Z,100860.88
2023-12-12T20:12:23.437Z,100836.78
2023-12-12T20:14:51.904Z,100928.56
2023-12-12T20:17:23.749Z,100980.16
2023-12-12T20:19:52.129Z,100976.38
2023-12-12T20:22:24.424Z,100993.31
2023-12-12T20:24:54.217Z,100987.41
2023-12-12T20:27:22.939Z,100948.97
2023-12-12T20:29:52.146Z,100987.50
2023-12-12T20:32:23.371Z,100913.72
2023-12-12T20:34:53.689Z,100974.72
2023-12-12T20:37:22.278Z,100989.59
2023-12-12T20:39:55.384Z,100968.44
2023-12-12T20:42:24.829Z,100987.19
2023-12-12T20:44:54.147Z,100925.47
2023-12-12T20:47:24.608Z,100990.66
2023-12-12T20:49:53.548Z,100879.56
2023-12-12T20:52:22.407Z,100972.25
2023-12-12T20:54:55.701Z,100964.84
2023-12-12T20:57:28.040Z,100994.34
2023-12-12T20:59:56.617Z,100972.59
2023-12-12T21:02:26.548Z,101003.34
2023-12-12T21:04:55.485Z,100998.69
2023-12-12T21:07:24.953Z,100976.34
2023-12-12T21:09:54.555Z,100927.00
2023-12-12T21:12:23.877Z,101011.16
2023-12-12T21:14:52.801Z,100937.66
2023-12-12T21:17:25.547Z,101010.56
2023-12-12T21:19:55.763Z,100949.72
2023-12-12T21:22:24.352Z,101013.28
2023-12-12T21:24:53.446Z,101009.44
2023-12-12T21:27:21.845Z,100997.59
2023-12-12T21:29:53.639Z,100897.13
2023-12-12T21:32:22.298Z,100987.06
2023-12-12T21:34:50.946Z,100991.81
2023-12-12T21:37:21.914Z,100982.31
2023-12-12T21:39:51.648Z,100997.50
2023-12-12T21:42:23.046Z,100991.59
2023-12-12T21:44:51.419Z,100990.81
2023-12-12T21:47:20.249Z,100929.13
2023-12-12T21:49:49.012Z,100923.75
2023-12-12T21:52:19.907Z,100967.09
2023-12-12T21:54:51.461Z,100919.03
2023-12-12T21:57:20.243Z,100981.06
2023-12-12T21:59:49.581Z,100911.97
2023-12-12T22:02:18.632Z,100919.19
2023-12-12T22:04:49.579Z,100977.47
2023-12-12T22:07:18.488Z,100982.31
2023-12-12T22:09:47.120Z,100982.56
2023-12-12T22:12:17.789Z,100986.34
2023-12-12T22:14:46.232Z,100978.19
2023-12-12T22:17:15.033Z,100955.66
2023-12-12T22:19:54.668Z,100974.91
2023-12-12T22:22:32.014Z,100943.06
2023-12-12T22:25:01.855Z,100980.25
2023-12-12T22:27:33.495Z,100893.72
2023-12-12T22:30:02.529Z,100951.19
2023-12-12T22:32:31.331Z,100912.72
2023-12-12T22:35:00.003Z,100960.28
2023-12-12T22:37:29.411Z,100981.22
2023-12-12T22:39:58.088Z,100940.84
2023-12-12T22:42:28.393Z,100959.63
2023-12-12T22:44:59.083Z,100943.22
2023-12-12T22:47:29.124Z,100952.72
2023-12-12T22:49:58.259Z,100965.94
2023-12-12T22:52:26.921Z,100905.38
2023-12-12T22:54:55.944Z,100920.78
2023-12-12T22:57:24.950Z,100903.34
2023-12-12T22:59:54.187Z,100910.47
2023-12-12T23:02:24.166Z,100990.03
2023-12-12T23:04:51.744Z,100987.31
2023-12-12T23:07:20.847Z,100991.56
2023-12-12T23:09:52.967Z,100948.53
2023-12-12T23:12:23.108Z,100855.09
2023-12-12T23:14:51.651Z,100970.47
2023-12-12T23:17:21.735Z,100981.22
2023-12-12T23:19:59.816Z,100966.63
2023-12-12T23:22:30.034Z,100994.00
2023-12-12T23:24:58.914Z,100983.72
2023-12-12T23:27:27.386Z,100985.53
2023-12-12T23:29:55.865Z,100947.94
2023-12-12T23:32:24.637Z,100966.88
2023-12-12T23:34:55.772Z,100909.13
2023-12-12T23:37:24.676Z,100975.22
2023-12-12T23:39:55.197Z,100944.34
2023-12-12T23:42:24.573Z,100959.91
2023-12-12T23:44:53.251Z,100964.31
2023-12-12T23:47:22.285Z,100940.28
2023-12-12T23:49:51.590Z,100895.38
2023-12-12T23:52:22.900Z,100962.44
2023-12-12T23:54:51.501Z,100954.59
2023-12-12T23:57:22.422Z,100969.19
2023-12-12T23:59:51.415Z,100972.44
